Data for 08/03/2005

Time Sea-Level Adjusted Pressure Absolute Pressure Temperature Relative Humidity Dew Point   
(mb) (inHg) (mb) (inHg) (C) (F) (%) (C) (F)
00:05 1022 30.18 851 25.13 14.8 58.7 93 13.6 56.6
00:10 1022 30.18 851 25.13 14.9 58.7 91 13.5 56.3
00:15 1022 30.18 851 25.13 15.1 59.1 90 13.5 56.2
00:20 1022 30.18 851 25.13 15.1 59.1 91 13.7 56.6
00:25 1022 30.18 851 25.13 14.8 58.6 92 13.5 56.3
00:30 1022 30.18 851 25.13 14.7 58.5 91 13.3 55.9
00:35 1022 30.18 851 25.13 14.8 58.6 92 13.4 56.1
00:40 1022 30.18 851 25.13 14.7 58.5 92 13.5 56.2
00:45 1022 30.18 851 25.13 14.9 58.9 91 13.5 56.4
00:50 1022 30.18 851 25.13 15.1 59.2 91 13.6 56.4
00:55 1022 30.18 851 25.13 15.2 59.3 91 13.7 56.6
01:00 1022 30.18 851 25.13 15.2 59.4 91 13.8 56.8
01:05 1022 30.18 852 25.16 15.1 59.1 92 13.8 56.9
01:10 1022 30.18 852 25.16 15 59 93 13.8 56.9
01:15 1022 30.18 852 25.16 14.8 58.6 94 13.8 56.9
01:20 1023 30.21 852 25.16 14.8 58.6 94 13.7 56.7
01:25 1023 30.21 852 25.16 14.7 58.5 93 13.7 56.6
01:30 1023 30.21 852 25.16 14.7 58.4 93 13.6 56.4
01:35 1023 30.21 852 25.16 14.5 58.1 94 13.6 56.4
01:40 1023 30.21 852 25.16 14.3 57.8 93 13.3 55.9
01:45 1023 30.21 853 25.19 14.3 57.7 95 13.4 56.1
01:50 1023 30.21 853 25.19 14.1 57.5 96 13.6 56.4
01:55 1023 30.21 853 25.19 14 57.3 95 13.3 55.9
02:00 1023 30.21 853 25.19 14 57.2 95 13.2 55.8
02:05 1023 30.21 853 25.19 13.9 56.9 94 13 55.3
02:10 1023 30.21 853 25.19 13.7 56.6 94 12.7 54.9
02:15 1024 30.24 853 25.19 13.5 56.2 94 12.5 54.6
02:20 1024 30.24 853 25.19 13.4 56.2 94 12.5 54.5
02:25 1024 30.24 853 25.19 13.3 56 94 12.4 54.3
02:30 1023 30.21 853 25.19 13.3 55.9 95 12.5 54.4
02:35 1023 30.21 852 25.16 13.2 55.7 96 12.5 54.6
02:40 1023 30.21 852 25.16 13 55.4 97 12.5 54.5
02:45 1022 30.18 852 25.16 13 55.5 96 12.5 54.4
02:50 1022 30.18 851 25.13 13.1 55.5 94 12.1 53.9
02:55 1022 30.18 851 25.13 13.1 55.5 93 12 53.6
03:00 1022 30.18 851 25.13 13.1 55.6 92 11.9 53.4
03:05 1022 30.18 851 25.13 13 55.3 93 11.8 53.3
03:10 1022 30.18 851 25.13 12.9 55.2 92 11.6 52.8
03:15 1021 30.15 851 25.13 12.8 55 91 11.3 52.3
03:20 1022 30.18 851 25.13 12.8 55 88 10.8 51.4
03:25 1022 30.18 851 25.13 12.8 55.1 86 10.5 51
03:30 1022 30.18 851 25.13 12.8 55.1 85 10.4 50.8
03:35 1022 30.18 851 25.13 12.7 54.8 88 10.8 51.4
03:40 1022 30.18 851 25.13 12.3 54.2 88 10.4 50.7
03:45 1022 30.18 851 25.13 12.4 54.3 87 10.2 50.4
03:50 1022 30.18 851 25.13 12.4 54.2 87 10.2 50.4
03:55 1022 30.18 851 25.13 12 53.6 92 10.7 51.2
04:00 1022 30.18 851 25.13 11.6 52.9 91 10.2 50.4
04:05 1022 30.18 851 25.13 11.7 53 87 9.6 49.2
04:10 1022 30.18 851 25.13 12.1 53.9 85 9.6 49.4
04:15 1022 30.18 851 25.13 12 53.5 86 9.8 49.6
04:20 1022 30.18 851 25.13 12 53.5 89 10.2 50.4
04:25 1022 30.18 851 25.13 12 53.6 87 9.9 49.9
04:30 1022 30.18 851 25.13 12.3 54.1 86 10.1 50.1
04:35 1022 30.18 851 25.13 12.4 54.2 86 10 50
04:40 1022 30.18 851 25.13 12.4 54.3 87 10.3 50.5
04:45 1022 30.18 851 25.13 12.1 53.8 91 10.7 51.2
04:50 1022 30.18 851 25.13 11.9 53.4 92 10.6 51.1
04:55 1022 30.18 851 25.13 12.1 53.7 91 10.6 51.1
05:00 1022 30.18 851 25.13 12.1 53.8 91 10.7 51.3
05:05 1022 30.18 851 25.13 12 53.7 92 10.7 51.3
05:10 1022 30.18 851 25.13 12.1 53.8 91 10.7 51.3
05:15 1022 30.18 851 25.13 12.2 53.9 91 10.7 51.3
05:20 1022 30.18 851 25.13 12.2 53.9 92 11 51.8
05:25 1022 30.18 852 25.16 11.9 53.4 93 10.8 51.5
05:30 1022 30.18 852 25.16 11.9 53.4 94 10.9 51.6
05:35 1022 30.18 852 25.16 12 53.5 94 11 51.8
05:40 1022 30.18 852 25.16 11.9 53.4 94 11 51.9
05:45 1023 30.21 852 25.16 11.7 53.1 94 10.8 51.4
05:50 1023 30.21 852 25.16 11.4 52.6 95 10.7 51.2
05:55 1023 30.21 852 25.16 11.2 52.2 96 10.5 51
06:00 1023 30.21 852 25.16 11.1 51.9 95 10.3 50.5
06:05 1023 30.21 852 25.16 11 51.9 96 10.4 50.6
06:10 1023 30.21 852 25.16 11.2 52.2 94 10.3 50.5
06:15 1023 30.21 852 25.16 11.6 52.8 90 10 49.9
06:20 1023 30.21 852 25.16 11.7 53.1 90 10.1 50.2
06:25 1023 30.21 852 25.16 11.2 52.2 92 10 50
06:30 1023 30.21 852 25.16 10.9 51.6 92 9.6 49.4
06:35 1023 30.21 852 25.16 10.7 51.2 94 9.7 49.4
06:40 1023 30.21 853 25.19 10.5 51 93 9.5 49.1
06:45 1023 30.21 853 25.19 10.6 51 92 9.3 48.7
06:50 1023 30.21 853 25.19 10.7 51.2 92 9.4 48.9
06:55 1023 30.21 853 25.19 10.7 51.3 92 9.5 49.1
07:00 1023 30.21 853 25.19 10.8 51.5 91 9.5 49.1
07:05 1023 30.21 853 25.19 10.9 51.7 92 9.6 49.4
07:10 1024 30.24 853 25.19 10.9 51.6 93 9.9 49.8
07:15 1023 30.21 853 25.19 10.9 51.5 92 9.6 49.4
07:20 1024 30.24 853 25.19 10.9 51.6 92 9.6 49.3
07:25 1024 30.24 853 25.19 10.9 51.6 92 9.6 49.3
07:30 1024 30.24 853 25.19 11 51.7 91 9.5 49.1
07:35 1024 30.24 853 25.19 11.3 52.4 90 9.8 49.6
07:40 1024 30.24 853 25.19 11.7 53.1 89 10 50.1
07:45 1024 30.24 853 25.19 12.3 54.1 87 10.2 50.4
07:50 1024 30.24 853 25.19 12.6 54.6 88 10.6 51.1
07:55 1024 30.24 853 25.19 13 55.4 86 10.6 51.2
08:00 1024 30.24 853 25.19 12.9 55.3 87 10.9 51.6
08:05 1024 30.24 853 25.19 13.4 56 85 10.9 51.6
08:10 1024 30.24 853 25.19 13.6 56.5 83 10.8 51.5
08:15 1024 30.24 853 25.19 13.4 56.2 85 11 51.8
08:20 1024 30.24 853 25.19 13.3 55.9 84 10.7 51.2
08:25 1024 30.24 853 25.19 13.6 56.4 82 10.5 50.9
08:30 1024 30.24 853 25.19 13.9 57.1 82 10.9 51.7
08:35 1024 30.24 853 25.19 14.7 58.4 77 10.8 51.4
08:40 1024 30.24 853 25.19 15.3 59.5 76 11 51.9
08:45 1024 30.24 853 25.19 16 60.8 75 11.7 53.1
08:50 1024 30.24 853 25.19 16 60.8 77 12 53.5
08:55 1024 30.24 853 25.19 15.9 60.6 75 11.4 52.6
09:00 1024 30.24 853 25.19 16.2 61.2 73 11.5 52.6
09:05 1024 30.24 853 25.19 16.5 61.7 74 11.8 53.3
09:10 1024 30.24 853 25.19 16.9 62.5 71 11.7 53
09:15 1024 30.24 854 25.22 17.1 62.8 70 11.7 53.1
09:20 1024 30.24 854 25.22 17.1 62.8 70 11.6 52.9
09:25 1024 30.24 854 25.22 17 62.5 72 11.9 53.4
09:30 1024 30.24 854 25.22 17 62.7 69 11.4 52.6
09:35 1024 30.24 854 25.22 17.8 64 66 11.5 52.7
09:40 1024 30.24 854 25.22 18 64.5 65 11.5 52.6
09:45 1024 30.24 854 25.22 18.7 65.7 61 11.2 52.1
09:50 1024 30.24 854 25.22 18.9 66 59 10.9 51.6
09:55 1024 30.24 854 25.22 19 66.1 59 10.9 51.6
10:00 1024 30.24 854 25.22 18.9 66.1 61 11.4 52.6
10:05 1024 30.24 854 25.22 18.8 65.9 63 11.6 52.9
10:10 1024 30.24 854 25.22 19.1 66.5 60 11.2 52.2
10:15 1024 30.24 854 25.22 19.2 66.5 59 11.1 52
10:20 1024 30.24 854 25.22 18.6 65.5 60 10.8 51.5
10:25 1025 30.27 854 25.22 19.1 66.4 59 10.9 51.7
10:30 1025 30.27 854 25.22 19.1 66.4 61 11.4 52.6
10:35 1025 30.27 854 25.22 19.4 66.9 59 11.3 52.3
10:40 1025 30.27 854 25.22 19.9 67.7 61 12.2 54
10:45 1025 30.27 854 25.22 19.6 67.2 61 12.1 53.7
10:50 1025 30.27 854 25.22 19.1 66.3 59 11.1 51.9
10:55 1025 30.27 854 25.22 19.2 66.5 59 11.1 52
11:00 1025 30.27 854 25.22 19.3 66.7 61 11.6 52.9
11:05 1025 30.27 854 25.22 19.4 66.9 60 11.5 52.7
11:10 1025 30.27 854 25.22 19.1 66.3 61 11.5 52.7
11:15 1025 30.27 854 25.22 19.4 66.8 60 11.5 52.8
11:20 1025 30.27 854 25.22 18.8 65.9 61 11.1 52
11:25 1025 30.27 854 25.22 19.6 67.2 57 11 51.7
11:30 1025 30.27 854 25.22 20.5 68.8 54 11.1 52
11:35 1025 30.27 854 25.22 20.4 68.8 56 11.5 52.7
11:40 1025 30.27 854 25.22 20.1 68.3 56 11.1 52
11:45 1025 30.27 854 25.22 20.6 69 56 11.6 52.8
11:50 1025 30.27 854 25.22 20 68 59 11.7 53.1
11:55 1025 30.27 854 25.22 19.7 67.4 60 11.7 53.1
12:00 1025 30.27 854 25.22 20 67.9 57 11.4 52.5
12:05 1025 30.27 854 25.22 20.4 68.7 56 11.5 52.7
12:10 1025 30.27 854 25.22 20.6 69.1 55 11.4 52.5
12:15 1025 30.27 854 25.22 21.3 70.3 52 11.3 52.3
12:20 1025 30.27 854 25.22 21.4 70.5 54 12 53.5
12:25 1025 30.27 854 25.22 21 69.8 52 10.9 51.7
12:30 1025 30.27 854 25.22 21.3 70.4 53 11.4 52.6
12:35 1025 30.27 854 25.22 21.7 71.1 51 11.2 52.2
12:40 1025 30.27 854 25.22 21.5 70.7 51 11.2 52.1
12:45 1025 30.27 854 25.22 21.7 71.1 50 11 51.8
12:50 1025 30.27 854 25.22 22.5 72.5 49 11.3 52.4
12:55 1025 30.27 854 25.22 22.4 72.4 49 11.4 52.5
13:00 1025 30.27 854 25.22 22.6 72.8 50 11.7 53.1
13:05 1025 30.27 854 25.22 22.7 72.8 48 11.4 52.5
13:10 1025 30.27 854 25.22 22 71.5 51 11.4 52.6
13:15 1025 30.27 854 25.22 22.4 72.3 46 10.5 50.9
13:20 1025 30.27 854 25.22 22.2 71.9 50 11.4 52.5
13:25 1025 30.27 854 25.22 22.5 72.5 49 11.6 52.8
13:30 1025 30.27 854 25.22 22 71.6 50 11.3 52.3
13:35 1025 30.27 854 25.22 22.4 72.3 46 10.3 50.6
13:40 1025 30.27 854 25.22 23.1 73.6 45 10.8 51.5
13:45 1025 30.27 854 25.22 22.5 72.5 48 11 51.8
13:50 1024 30.24 854 25.22 23.1 73.5 47 11.2 52.2
13:55 1024 30.24 854 25.22 22.7 72.8 47 11.1 52
14:00 1024 30.24 854 25.22 22.9 73.2 47 11.2 52.2
14:05 1024 30.24 854 25.22 23.4 74 44 10.5 50.8
14:10 1024 30.24 854 25.22 23.4 74 45 11 51.8
14:15 1024 30.24 854 25.22 23.4 74.1 45 11.1 52
14:20 1024 30.24 854 25.22 23.5 74.2 45 11.1 51.9
14:25 1024 30.24 854 25.22 23.5 74.3 43 10.3 50.5
14:30 1024 30.24 854 25.22 23.5 74.2 44 10.7 51.2
14:35 1024 30.24 853 25.19 23.5 74.3 43 10.2 50.4
14:40 1024 30.24 853 25.19 23.3 73.9 43 10.1 50.1
14:45 1024 30.24 854 25.22 22.5 72.6 44 9.9 49.8
14:50 1024 30.24 854 25.22 23.3 74 40 9 48.2
14:55 1024 30.24 854 25.22 23.5 74.3 42 10.2 50.4
15:00 1024 30.24 853 25.19 23.3 73.9 43 10.3 50.5
15:05 1024 30.24 853 25.19 23.8 74.9 43 10.6 51.1
15:10 1024 30.24 853 25.19 24 75.2 43 10.9 51.6
15:15 1024 30.24 853 25.19 24.8 76.7 39 10.1 50.1
15:20 1024 30.24 853 25.19 24.7 76.5 41 10.8 51.5
15:25 1024 30.24 853 25.19 24.2 75.5 37 8.6 47.5
15:30 1024 30.24 853 25.19 24.7 76.4 35 8.6 47.4
15:35 1024 30.24 853 25.19 25.1 77.2 34 8.4 47.2
15:40 1024 30.24 853 25.19 25.4 77.6 36 9.5 49
15:45 1024 30.24 853 25.19 25.2 77.4 39 10.4 50.7
15:50 1024 30.24 853 25.19 25.2 77.4 38 9.9 49.9
15:55 1024 30.24 853 25.19 25.9 78.7 34 9.1 48.3
16:00 1024 30.24 853 25.19 26 78.9 34 9.3 48.8
16:05 1024 30.24 853 25.19 25.3 77.6 35 9 48.2
16:10 1024 30.24 853 25.19 24.9 76.8 32 7.2 45
16:15 1024 30.24 853 25.19 25.1 77.2 33 8.1 46.6
16:20 1024 30.24 853 25.19 24.2 75.5 35 8 46.3
16:25 1024 30.24 853 25.19 23.6 74.5 33 6.6 43.8
16:30 1024 30.24 853 25.19 24.8 76.7 32 7.3 45.1
16:35 1024 30.24 853 25.19 25.3 77.5 31 7.4 45.3
16:40 1024 30.24 853 25.19 25.1 77.1 35 8.7 47.6
16:45 1024 30.24 853 25.19 24.8 76.6 33 7.5 45.4
16:50 1024 30.24 853 25.19 24.5 76.2 38 9.3 48.8
16:55 1024 30.24 853 25.19 24.7 76.4 36 8.7 47.6
17:00 1024 30.24 853 25.19 25.2 77.4 34 8.7 47.7
17:05 1024 30.24 853 25.19 25.2 77.4 35 8.9 48
17:10 1024 30.24 853 25.19 25.3 77.5 34 8.5 47.3
17:15 1024 30.24 853 25.19 25.7 78.3 33 8.6 47.4
17:20 1024 30.24 853 25.19 25.8 78.4 33 8.8 47.8
17:25 1024 30.24 853 25.19 25.5 77.8 32 8 46.4
17:30 1024 30.24 853 25.19 24.2 75.5 45 11.6 52.8
17:35 1024 30.24 853 25.19 22.9 73.1 50 12 53.7
17:40 1024 30.24 853 25.19 21.9 71.4 52 11.8 53.2
17:45 1024 30.24 853 25.19 21.3 70.3 55 11.9 53.4
17:50 1024 30.24 853 25.19 20.9 69.7 57 12.1 53.8
17:55 1024 30.24 853 25.19 20.8 69.5 57 12.2 53.9
18:00 1024 30.24 853 25.19 20.9 69.7 57 12.3 54.2
18:05 1024 30.24 853 25.19 20.9 69.6 58 12.3 54.2
18:10 1024 30.24 853 25.19 21 69.9 56 12 53.6
18:15 1024 30.24 853 25.19 21 69.8 55 11.9 53.3
18:20 1024 30.24 853 25.19 20.9 69.6 56 12 53.6
18:25 1024 30.24 853 25.19 20.8 69.5 56 11.8 53.3
18:30 1024 30.24 853 25.19 20.9 69.5 57 12.2 53.9
18:35 1024 30.24 853 25.19 20.6 69 58 12.2 53.9
18:40 1024 30.24 853 25.19 20.3 68.6 59 12.2 54
18:45 1024 30.24 853 25.19 20.2 68.4 59 12.1 53.7
18:50 1024 30.24 853 25.19 19.8 67.7 60 11.9 53.4
18:55 1024 30.24 853 25.19 19.6 67.4 61 12 53.6
19:00 1024 30.24 853 25.19 19.5 67.2 62 12.1 53.7
19:05 1024 30.24 853 25.19 19.4 66.9 62 12 53.7
19:10 1024 30.24 854 25.22 19.2 66.5 62 11.8 53.3
19:15 1024 30.24 854 25.22 19.1 66.4 63 12 53.5
19:20 1024 30.24 854 25.22 19 66.2 64 12 53.6
19:25 1025 30.27 854 25.22 18.9 66.1 65 12.2 54
19:30 1024 30.24 854 25.22 18.9 66 64 12 53.7
19:35 1024 30.24 854 25.22 18.8 65.8 64 12 53.7
19:40 1024 30.24 854 25.22 18.7 65.6 65 12 53.6
19:45 1024 30.24 854 25.22 18.5 65.4 66 12.1 53.7
19:50 1024 30.24 854 25.22 18.4 65.2 66 12 53.6
19:55 1024 30.24 854 25.22 18.3 64.9 66 11.9 53.4
20:00 1025 30.27 854 25.22 18.1 64.7 65 11.6 52.8
20:05 1025 30.27 854 25.22 18.1 64.5 65 11.4 52.5
20:10 1025 30.27 854 25.22 17.9 64.3 66 11.5 52.7
20:15 1025 30.27 854 25.22 17.8 64 65 11.3 52.3
20:20 1025 30.27 854 25.22 17.6 63.7 66 11.3 52.3
20:25 1025 30.27 854 25.22 17.5 63.5 67 11.3 52.4
20:30 1025 30.27 854 25.22 17.4 63.2 67 11.3 52.3
20:35 1025 30.27 854 25.22 17.2 63 67 11.2 52.2
20:40 1025 30.27 854 25.22 17.2 62.9 69 11.5 52.7
20:45 1025 30.27 854 25.22 17 62.5 70 11.5 52.7
20:50 1025 30.27 854 25.22 16.9 62.4 70 11.5 52.7
20:55 1025 30.27 854 25.22 16.7 62.1 72 11.6 52.9
21:00 1025 30.27 854 25.22 16.6 61.8 72 11.6 52.9
21:05 1025 30.27 854 25.22 16.5 61.6 73 11.7 53
21:10 1025 30.27 855 25.25 16.3 61.4 74 11.7 53
21:15 1025 30.27 855 25.25 16.1 61 75 11.7 53
21:20 1025 30.27 855 25.25 16.1 61 75 11.8 53.2
21:25 1025 30.27 855 25.25 16 60.8 76 11.8 53.2
21:30 1026 30.3 855 25.25 15.9 60.6 76 11.7 53.1
21:35 1026 30.3 855 25.25 15.8 60.5 77 11.8 53.2
21:40 1026 30.3 855 25.25 15.7 60.3 77 11.8 53.3
21:45 1026 30.3 855 25.25 15.5 60 78 11.8 53.3
21:50 1026 30.3 855 25.25 15.5 59.8 79 11.8 53.2
21:55 1026 30.3 855 25.25 15.4 59.7 79 11.8 53.2
22:00 1026 30.3 855 25.25 15.3 59.6 79 11.8 53.2
22:05 1026 30.3 855 25.25 15.2 59.4 80 11.8 53.2
22:10 1026 30.3 855 25.25 15.1 59.2 80 11.8 53.2
22:15 1026 30.3 855 25.25 15.1 59.1 80 11.7 53.1
22:20 1026 30.3 855 25.25 15.1 59.2 80 11.8 53.2
22:25 1026 30.3 855 25.25 15.1 59.2 80 11.8 53.2
22:30 1026 30.3 855 25.25 15.1 59.1 81 11.8 53.3
22:35 1026 30.3 855 25.25 15 59 81 11.7 53.1
22:40 1026 30.3 855 25.25 15 59 81 11.8 53.2
22:45 1026 30.3 855 25.25 15 58.9 81 11.8 53.2
22:50 1026 30.3 855 25.25 14.9 58.9 81 11.8 53.2
22:55 1026 30.3 856 25.28 14.9 58.8 81 11.7 53.1
23:00 1026 30.3 856 25.28 14.8 58.7 82 11.8 53.2
23:05 1026 30.3 856 25.28 14.7 58.5 82 11.7 53.1
23:10 1026 30.3 856 25.28 14.7 58.4 82 11.7 53
23:15 1026 30.3 856 25.28 14.7 58.5 81 11.6 52.9
23:20 1027 30.33 856 25.28 14.7 58.5 81 11.6 52.9
23:25 1027 30.33 856 25.28 14.7 58.5 81 11.6 52.9
23:30 1027 30.33 856 25.28 14.7 58.5 81 11.6 52.8
23:35 1027 30.33 856 25.28 14.7 58.5 82 11.6 53
23:40 1027 30.33 856 25.28 14.7 58.5 82 11.6 52.9
23:45 1027 30.33 856 25.28 14.7 58.4 81 11.5 52.8
23:50 1027 30.33 856 25.28 14.6 58.3 82 11.6 52.8
23:55 1027 30.33 856 25.28 14.6 58.3 82 11.6 52.8
24:00 1027 30.33 856 25.28 14.6 58.3 82 11.5 52.7